sensor_id;sensor_type;location;lat;lon;timestamp;P1;durP1;ratioP1;P2;durP2;ratioP2
55082;SDS011;40978;52.850;6.506;2023-03-19T00:01:57;26.00;;;23.23;;
55082;SDS011;40978;52.850;6.506;2023-03-19T00:04:23;26.20;;;23.15;;
55082;SDS011;40978;52.850;6.506;2023-03-19T00:06:50;24.83;;;22.20;;
55082;SDS011;40978;52.850;6.506;2023-03-19T00:09:16;25.48;;;22.90;;
55082;SDS011;40978;52.850;6.506;2023-03-19T00:11:43;24.95;;;22.30;;
55082;SDS011;40978;52.850;6.506;2023-03-19T00:14:09;23.10;;;20.70;;
55082;SDS011;40978;52.850;6.506;2023-03-19T00:16:35;24.30;;;21.77;;
55082;SDS011;40978;52.850;6.506;2023-03-19T00:19:01;23.38;;;21.17;;
55082;SDS011;40978;52.850;6.506;2023-03-19T00:21:28;24.50;;;21.88;;
55082;SDS011;40978;52.850;6.506;2023-03-19T00:23:53;24.20;;;21.33;;
55082;SDS011;40978;52.850;6.506;2023-03-19T00:26:25;24.80;;;22.10;;
55082;SDS011;40978;52.850;6.506;2023-03-19T00:28:51;23.83;;;21.33;;
55082;SDS011;40978;52.850;6.506;2023-03-19T00:31:17;23.85;;;21.42;;
55082;SDS011;40978;52.850;6.506;2023-03-19T00:33:43;22.90;;;20.60;;
55082;SDS011;40978;52.850;6.506;2023-03-19T00:36:09;22.60;;;20.17;;
55082;SDS011;40978;52.850;6.506;2023-03-19T00:38:35;22.20;;;20.10;;
55082;SDS011;40978;52.850;6.506;2023-03-19T00:41:01;21.75;;;19.60;;
55082;SDS011;40978;52.850;6.506;2023-03-19T00:43:29;22.50;;;19.98;;
55082;SDS011;40978;52.850;6.506;2023-03-19T00:45:55;23.20;;;20.83;;
55082;SDS011;40978;52.850;6.506;2023-03-19T00:48:20;24.05;;;20.33;;
55082;SDS011;40978;52.850;6.506;2023-03-19T00:50:46;24.55;;;21.95;;
55082;SDS011;40978;52.850;6.506;2023-03-19T00:53:12;23.95;;;21.52;;
55082;SDS011;40978;52.850;6.506;2023-03-19T00:55:38;23.45;;;21.05;;
55082;SDS011;40978;52.850;6.506;2023-03-19T00:58:04;23.25;;;20.77;;
55082;SDS011;40978;52.850;6.506;2023-03-19T01:00:31;22.65;;;20.42;;
55082;SDS011;40978;52.850;6.506;2023-03-19T01:03:00;21.73;;;19.52;;
55082;SDS011;40978;52.850;6.506;2023-03-19T01:05:26;23.42;;;21.15;;
55082;SDS011;40978;52.850;6.506;2023-03-19T01:07:52;22.67;;;20.13;;
55082;SDS011;40978;52.850;6.506;2023-03-19T01:10:19;20.70;;;18.50;;
55082;SDS011;40978;52.850;6.506;2023-03-19T01:12:46;20.23;;;18.13;;
55082;SDS011;40978;52.850;6.506;2023-03-19T01:15:12;19.88;;;17.70;;
55082;SDS011;40978;52.850;6.506;2023-03-19T01:17:38;19.80;;;16.30;;
55082;SDS011;40978;52.850;6.506;2023-03-19T01:20:04;17.45;;;15.65;;
55082;SDS011;40978;52.850;6.506;2023-03-19T01:22:36;17.02;;;15.38;;
55082;SDS011;40978;52.850;6.506;2023-03-19T01:25:04;17.27;;;14.75;;
55082;SDS011;40978;52.850;6.506;2023-03-19T01:27:30;14.85;;;13.32;;
55082;SDS011;40978;52.850;6.506;2023-03-19T01:29:56;16.40;;;14.73;;
55082;SDS011;40978;52.850;6.506;2023-03-19T01:32:22;15.07;;;13.65;;
55082;SDS011;40978;52.850;6.506;2023-03-19T01:34:47;14.70;;;12.57;;
55082;SDS011;40978;52.850;6.506;2023-03-19T01:37:13;14.02;;;12.60;;
55082;SDS011;40978;52.850;6.506;2023-03-19T01:39:39;13.50;;;12.10;;
55082;SDS011;40978;52.850;6.506;2023-03-19T01:42:05;13.60;;;11.93;;
55082;SDS011;40978;52.850;6.506;2023-03-19T01:44:33;13.20;;;11.80;;
55082;SDS011;40978;52.850;6.506;2023-03-19T01:47:02;16.98;;;10.80;;
55082;SDS011;40978;52.850;6.506;2023-03-19T01:49:39;12.13;;;9.55;;
55082;SDS011;40978;52.850;6.506;2023-03-19T01:52:05;10.60;;;9.20;;
55082;SDS011;40978;52.850;6.506;2023-03-19T01:54:33;9.55;;;7.68;;
55082;SDS011;40978;52.850;6.506;2023-03-19T01:57:07;8.93;;;8.00;;
55082;SDS011;40978;52.850;6.506;2023-03-19T01:59:36;8.30;;;7.20;;
55082;SDS011;40978;52.850;6.506;2023-03-19T02:02:10;8.60;;;7.15;;
55082;SDS011;40978;52.850;6.506;2023-03-19T02:04:42;9.38;;;7.43;;
55082;SDS011;40978;52.850;6.506;2023-03-19T02:07:10;8.63;;;7.18;;
55082;SDS011;40978;52.850;6.506;2023-03-19T02:09:38;7.82;;;6.40;;
55082;SDS011;40978;52.850;6.506;2023-03-19T02:12:05;9.20;;;6.72;;
55082;SDS011;40978;52.850;6.506;2023-03-19T02:14:32;7.13;;;6.43;;
55082;SDS011;40978;52.850;6.506;2023-03-19T02:16:58;7.30;;;6.00;;
55082;SDS011;40978;52.850;6.506;2023-03-19T02:19:30;8.68;;;6.45;;
55082;SDS011;40978;52.850;6.506;2023-03-19T02:22:20;7.18;;;6.03;;
55082;SDS011;40978;52.850;6.506;2023-03-19T02:24:50;7.07;;;6.32;;
55082;SDS011;40978;52.850;6.506;2023-03-19T02:29:48;8.50;;;6.05;;
55082;SDS011;40978;52.850;6.506;2023-03-19T02:32:14;7.45;;;5.53;;
55082;SDS011;40978;52.850;6.506;2023-03-19T02:34:41;6.25;;;5.65;;
55082;SDS011;40978;52.850;6.506;2023-03-19T02:37:12;8.93;;;5.85;;
55082;SDS011;40978;52.850;6.506;2023-03-19T02:42:29;6.10;;;5.25;;
55082;SDS011;40978;52.850;6.506;2023-03-19T02:44:55;7.60;;;5.32;;
55082;SDS011;40978;52.850;6.506;2023-03-19T02:47:22;6.50;;;5.90;;
55082;SDS011;40978;52.850;6.506;2023-03-19T02:49:49;9.18;;;5.72;;
55082;SDS011;40978;52.850;6.506;2023-03-19T02:52:14;7.43;;;5.72;;
55082;SDS011;40978;52.850;6.506;2023-03-19T02:54:40;7.43;;;6.05;;
55082;SDS011;40978;52.850;6.506;2023-03-19T02:57:06;5.60;;;5.10;;
55082;SDS011;40978;52.850;6.506;2023-03-19T02:59:32;7.72;;;5.32;;
55082;SDS011;40978;52.850;6.506;2023-03-19T03:01:58;7.07;;;5.03;;
55082;SDS011;40978;52.850;6.506;2023-03-19T03:04:24;9.98;;;4.70;;
55082;SDS011;40978;52.850;6.506;2023-03-19T03:06:50;5.45;;;4.43;;
55082;SDS011;40978;52.850;6.506;2023-03-19T03:09:16;9.30;;;4.47;;
55082;SDS011;40978;52.850;6.506;2023-03-19T03:11:43;4.32;;;3.92;;
55082;SDS011;40978;52.850;6.506;2023-03-19T03:14:09;6.78;;;4.43;;
55082;SDS011;40978;52.850;6.506;2023-03-19T03:16:35;5.65;;;4.15;;
55082;SDS011;40978;52.850;6.506;2023-03-19T03:19:02;4.68;;;4.07;;
55082;SDS011;40978;52.850;6.506;2023-03-19T03:21:28;7.10;;;4.68;;
55082;SDS011;40978;52.850;6.506;2023-03-19T03:23:54;7.72;;;3.72;;
55082;SDS011;40978;52.850;6.506;2023-03-19T03:26:20;6.10;;;4.03;;
55082;SDS011;40978;52.850;6.506;2023-03-19T03:28:46;7.43;;;4.40;;
55082;SDS011;40978;52.850;6.506;2023-03-19T03:31:12;6.88;;;4.38;;
55082;SDS011;40978;52.850;6.506;2023-03-19T03:33:38;4.55;;;3.88;;
55082;SDS011;40978;52.850;6.506;2023-03-19T03:36:05;7.38;;;4.07;;
55082;SDS011;40978;52.850;6.506;2023-03-19T03:38:31;4.75;;;3.85;;
55082;SDS011;40978;52.850;6.506;2023-03-19T03:40:57;5.97;;;3.97;;
55082;SDS011;40978;52.850;6.506;2023-03-19T03:43:23;5.47;;;4.60;;
55082;SDS011;40978;52.850;6.506;2023-03-19T03:45:49;5.15;;;4.65;;
55082;SDS011;40978;52.850;6.506;2023-03-19T03:48:15;4.68;;;4.22;;
55082;SDS011;40978;52.850;6.506;2023-03-19T03:50:41;5.57;;;4.22;;
55082;SDS011;40978;52.850;6.506;2023-03-19T03:53:07;5.28;;;4.78;;
55082;SDS011;40978;52.850;6.506;2023-03-19T03:55:34;6.78;;;4.57;;
55082;SDS011;40978;52.850;6.506;2023-03-19T03:58:00;8.00;;;4.88;;
55082;SDS011;40978;52.850;6.506;2023-03-19T04:00:27;7.10;;;4.82;;
55082;SDS011;40978;52.850;6.506;2023-03-19T04:02:52;6.70;;;5.38;;
55082;SDS011;40978;52.850;6.506;2023-03-19T04:05:18;6.10;;;4.80;;
55082;SDS011;40978;52.850;6.506;2023-03-19T04:07:44;8.50;;;4.82;;
55082;SDS011;40978;52.850;6.506;2023-03-19T04:10:11;5.18;;;4.68;;
55082;SDS011;40978;52.850;6.506;2023-03-19T04:12:37;7.00;;;5.45;;
55082;SDS011;40978;52.850;6.506;2023-03-19T04:15:04;7.00;;;5.25;;
55082;SDS011;40978;52.850;6.506;2023-03-19T04:17:31;6.60;;;5.38;;
55082;SDS011;40978;52.850;6.506;2023-03-19T04:19:57;7.55;;;6.00;;
55082;SDS011;40978;52.850;6.506;2023-03-19T04:22:23;9.40;;;5.60;;
55082;SDS011;40978;52.850;6.506;2023-03-19T04:24:49;7.57;;;6.80;;
55082;SDS011;40978;52.850;6.506;2023-03-19T04:27:15;7.45;;;5.93;;
55082;SDS011;40978;52.850;6.506;2023-03-19T04:29:41;8.57;;;6.45;;
55082;SDS011;40978;52.850;6.506;2023-03-19T04:32:06;9.25;;;5.93;;
55082;SDS011;40978;52.850;6.506;2023-03-19T04:34:32;7.93;;;6.22;;
55082;SDS011;40978;52.850;6.506;2023-03-19T04:36:59;8.52;;;7.10;;
55082;SDS011;40978;52.850;6.506;2023-03-19T04:39:24;8.10;;;6.72;;
55082;SDS011;40978;52.850;6.506;2023-03-19T04:41:51;8.50;;;7.10;;
55082;SDS011;40978;52.850;6.506;2023-03-19T04:44:17;7.18;;;6.57;;
55082;SDS011;40978;52.850;6.506;2023-03-19T04:46:42;7.03;;;6.32;;
55082;SDS011;40978;52.850;6.506;2023-03-19T04:49:10;7.50;;;6.50;;
55082;SDS011;40978;52.850;6.506;2023-03-19T04:51:36;7.00;;;5.95;;
55082;SDS011;40978;52.850;6.506;2023-03-19T04:54:02;8.98;;;6.13;;
55082;SDS011;40978;52.850;6.506;2023-03-19T04:56:29;7.35;;;6.03;;
55082;SDS011;40978;52.850;6.506;2023-03-19T04:58:55;6.15;;;5.47;;
55082;SDS011;40978;52.850;6.506;2023-03-19T05:01:21;6.85;;;6.15;;
55082;SDS011;40978;52.850;6.506;2023-03-19T05:03:47;6.15;;;5.55;;
55082;SDS011;40978;52.850;6.506;2023-03-19T05:06:13;6.60;;;5.35;;
55082;SDS011;40978;52.850;6.506;2023-03-19T05:08:39;7.78;;;6.03;;
55082;SDS011;40978;52.850;6.506;2023-03-19T05:11:05;7.05;;;5.65;;
55082;SDS011;40978;52.850;6.506;2023-03-19T05:13:31;8.02;;;6.28;;
55082;SDS011;40978;52.850;6.506;2023-03-19T05:15:57;6.53;;;5.93;;
55082;SDS011;40978;52.850;6.506;2023-03-19T05:18:23;6.80;;;6.10;;
55082;SDS011;40978;52.850;6.506;2023-03-19T05:20:50;9.85;;;6.10;;
55082;SDS011;40978;52.850;6.506;2023-03-19T05:23:16;6.88;;;5.75;;
55082;SDS011;40978;52.850;6.506;2023-03-19T05:25:42;8.27;;;6.35;;
55082;SDS011;40978;52.850;6.506;2023-03-19T05:28:07;7.75;;;5.70;;
55082;SDS011;40978;52.850;6.506;2023-03-19T05:30:34;7.15;;;5.88;;
55082;SDS011;40978;52.850;6.506;2023-03-19T05:33:00;10.13;;;6.20;;
55082;SDS011;40978;52.850;6.506;2023-03-19T05:35:26;7.55;;;5.90;;
55082;SDS011;40978;52.850;6.506;2023-03-19T05:37:53;6.35;;;5.70;;
55082;SDS011;40978;52.850;6.506;2023-03-19T05:40:20;6.97;;;5.90;;
55082;SDS011;40978;52.850;6.506;2023-03-19T05:42:47;8.43;;;6.45;;
55082;SDS011;40978;52.850;6.506;2023-03-19T05:45:13;8.05;;;6.05;;
55082;SDS011;40978;52.850;6.506;2023-03-19T05:47:39;8.15;;;6.38;;
55082;SDS011;40978;52.850;6.506;2023-03-19T05:50:05;7.55;;;6.68;;
55082;SDS011;40978;52.850;6.506;2023-03-19T05:52:31;7.00;;;6.25;;
55082;SDS011;40978;52.850;6.506;2023-03-19T05:54:57;8.75;;;6.50;;
55082;SDS011;40978;52.850;6.506;2023-03-19T05:57:23;7.22;;;6.38;;
55082;SDS011;40978;52.850;6.506;2023-03-19T05:59:49;7.82;;;6.90;;
55082;SDS011;40978;52.850;6.506;2023-03-19T06:02:15;7.40;;;6.65;;
55082;SDS011;40978;52.850;6.506;2023-03-19T06:04:41;9.10;;;7.07;;
55082;SDS011;40978;52.850;6.506;2023-03-19T06:07:07;9.90;;;6.60;;
55082;SDS011;40978;52.850;6.506;2023-03-19T06:09:33;8.40;;;6.15;;
55082;SDS011;40978;52.850;6.506;2023-03-19T06:11:59;7.47;;;6.72;;
55082;SDS011;40978;52.850;6.506;2023-03-19T06:14:24;10.75;;;7.65;;
55082;SDS011;40978;52.850;6.506;2023-03-19T06:16:50;9.93;;;6.97;;
55082;SDS011;40978;52.850;6.506;2023-03-19T06:19:16;8.85;;;7.47;;
55082;SDS011;40978;52.850;6.506;2023-03-19T06:21:41;11.88;;;7.90;;
55082;SDS011;40978;52.850;6.506;2023-03-19T06:24:07;8.20;;;7.40;;
55082;SDS011;40978;52.850;6.506;2023-03-19T06:26:33;9.43;;;7.80;;
55082;SDS011;40978;52.850;6.506;2023-03-19T06:28:59;9.70;;;8.40;;
55082;SDS011;40978;52.850;6.506;2023-03-19T06:31:25;9.90;;;7.88;;
55082;SDS011;40978;52.850;6.506;2023-03-19T06:33:52;9.90;;;8.40;;
55082;SDS011;40978;52.850;6.506;2023-03-19T06:36:18;8.95;;;7.93;;
55082;SDS011;40978;52.850;6.506;2023-03-19T06:38:44;10.30;;;8.63;;
55082;SDS011;40978;52.850;6.506;2023-03-19T06:41:10;12.90;;;9.52;;
55082;SDS011;40978;52.850;6.506;2023-03-19T06:43:36;13.40;;;9.48;;
55082;SDS011;40978;52.850;6.506;2023-03-19T06:46:05;10.95;;;8.98;;
55082;SDS011;40978;52.850;6.506;2023-03-19T06:48:32;12.68;;;10.00;;
55082;SDS011;40978;52.850;6.506;2023-03-19T06:50:58;11.38;;;9.82;;
55082;SDS011;40978;52.850;6.506;2023-03-19T06:53:24;13.77;;;10.13;;
55082;SDS011;40978;52.850;6.506;2023-03-19T06:55:50;17.75;;;11.77;;
55082;SDS011;40978;52.850;6.506;2023-03-19T06:58:16;14.73;;;12.38;;
55082;SDS011;40978;52.850;6.506;2023-03-19T07:00:41;16.05;;;12.07;;
55082;SDS011;40978;52.850;6.506;2023-03-19T07:03:07;14.07;;;12.45;;
55082;SDS011;40978;52.850;6.506;2023-03-19T07:05:34;16.15;;;12.70;;
55082;SDS011;40978;52.850;6.506;2023-03-19T07:08:00;17.08;;;13.18;;
55082;SDS011;40978;52.850;6.506;2023-03-19T07:10:25;18.17;;;13.25;;
55082;SDS011;40978;52.850;6.506;2023-03-19T07:12:51;19.80;;;14.80;;
55082;SDS011;40978;52.850;6.506;2023-03-19T07:15:17;17.85;;;14.43;;
55082;SDS011;40978;52.850;6.506;2023-03-19T07:17:45;17.98;;;13.73;;
55082;SDS011;40978;52.850;6.506;2023-03-19T07:20:12;14.45;;;13.05;;
55082;SDS011;40978;52.850;6.506;2023-03-19T07:22:39;15.38;;;13.38;;
55082;SDS011;40978;52.850;6.506;2023-03-19T07:25:05;13.77;;;12.20;;
55082;SDS011;40978;52.850;6.506;2023-03-19T07:27:31;14.02;;;12.43;;
55082;SDS011;40978;52.850;6.506;2023-03-19T07:29:57;12.35;;;11.07;;
55082;SDS011;40978;52.850;6.506;2023-03-19T07:32:23;13.75;;;11.60;;
55082;SDS011;40978;52.850;6.506;2023-03-19T07:34:49;13.05;;;11.52;;
55082;SDS011;40978;52.850;6.506;2023-03-19T07:37:15;13.15;;;10.95;;
55082;SDS011;40978;52.850;6.506;2023-03-19T07:39:41;12.30;;;11.13;;
55082;SDS011;40978;52.850;6.506;2023-03-19T07:42:07;12.90;;;11.70;;
55082;SDS011;40978;52.850;6.506;2023-03-19T07:44:32;11.00;;;10.00;;
55082;SDS011;40978;52.850;6.506;2023-03-19T07:46:58;10.48;;;9.57;;
55082;SDS011;40978;52.850;6.506;2023-03-19T07:49:24;12.20;;;11.00;;
55082;SDS011;40978;52.850;6.506;2023-03-19T07:51:50;11.20;;;10.05;;
55082;SDS011;40978;52.850;6.506;2023-03-19T07:54:16;11.32;;;10.23;;
55082;SDS011;40978;52.850;6.506;2023-03-19T07:56:42;11.52;;;10.38;;
55082;SDS011;40978;52.850;6.506;2023-03-19T07:59:07;11.27;;;10.18;;
55082;SDS011;40978;52.850;6.506;2023-03-19T08:01:33;11.55;;;10.55;;
55082;SDS011;40978;52.850;6.506;2023-03-19T08:03:59;10.98;;;9.98;;
55082;SDS011;40978;52.850;6.506;2023-03-19T08:06:25;9.43;;;8.52;;
55082;SDS011;40978;52.850;6.506;2023-03-19T08:08:51;10.02;;;9.15;;
55082;SDS011;40978;52.850;6.506;2023-03-19T08:11:16;10.38;;;9.38;;
55082;SDS011;40978;52.850;6.506;2023-03-19T08:13:42;10.68;;;9.68;;
55082;SDS011;40978;52.850;6.506;2023-03-19T08:16:08;10.45;;;9.55;;
55082;SDS011;40978;52.850;6.506;2023-03-19T08:18:34;10.95;;;9.95;;
55082;SDS011;40978;52.850;6.506;2023-03-19T08:21:00;10.82;;;9.90;;
55082;SDS011;40978;52.850;6.506;2023-03-19T08:23:26;10.57;;;9.52;;
55082;SDS011;40978;52.850;6.506;2023-03-19T08:25:52;10.85;;;9.82;;
55082;SDS011;40978;52.850;6.506;2023-03-19T08:28:19;10.32;;;9.32;;
55082;SDS011;40978;52.850;6.506;2023-03-19T08:30:45;10.43;;;9.43;;
55082;SDS011;40978;52.850;6.506;2023-03-19T08:33:11;10.57;;;9.57;;
55082;SDS011;40978;52.850;6.506;2023-03-19T08:35:37;10.25;;;9.35;;
55082;SDS011;40978;52.850;6.506;2023-03-19T08:38:03;9.95;;;8.95;;
55082;SDS011;40978;52.850;6.506;2023-03-19T08:40:29;10.50;;;9.50;;
55082;SDS011;40978;52.850;6.506;2023-03-19T08:42:55;9.77;;;8.98;;
55082;SDS011;40978;52.850;6.506;2023-03-19T08:45:21;10.40;;;9.43;;
55082;SDS011;40978;52.850;6.506;2023-03-19T08:47:47;8.80;;;8.00;;
55082;SDS011;40978;52.850;6.506;2023-03-19T08:50:13;8.93;;;8.13;;
55082;SDS011;40978;52.850;6.506;2023-03-19T08:52:39;9.07;;;8.07;;
55082;SDS011;40978;52.850;6.506;2023-03-19T08:55:06;9.50;;;8.27;;
55082;SDS011;40978;52.850;6.506;2023-03-19T08:57:32;9.25;;;8.35;;
55082;SDS011;40978;52.850;6.506;2023-03-19T08:59:59;9.05;;;8.20;;
55082;SDS011;40978;52.850;6.506;2023-03-19T09:02:25;9.70;;;8.45;;
55082;SDS011;40978;52.850;6.506;2023-03-19T09:04:51;9.65;;;8.75;;
55082;SDS011;40978;52.850;6.506;2023-03-19T09:07:17;9.75;;;8.85;;
55082;SDS011;40978;52.850;6.506;2023-03-19T09:09:43;11.10;;;10.10;;
55082;SDS011;40978;52.850;6.506;2023-03-19T09:12:10;9.07;;;8.27;;
55082;SDS011;40978;52.850;6.506;2023-03-19T09:14:39;9.98;;;9.07;;
55082;SDS011;40978;52.850;6.506;2023-03-19T09:17:05;10.70;;;9.27;;
55082;SDS011;40978;52.850;6.506;2023-03-19T09:19:31;9.80;;;8.90;;
55082;SDS011;40978;52.850;6.506;2023-03-19T09:21:58;9.90;;;8.90;;
55082;SDS011;40978;52.850;6.506;2023-03-19T09:24:24;10.00;;;9.05;;
55082;SDS011;40978;52.850;6.506;2023-03-19T09:27:12;10.30;;;9.07;;
55082;SDS011;40978;52.850;6.506;2023-03-19T09:29:38;9.88;;;8.98;;
55082;SDS011;40978;52.850;6.506;2023-03-19T09:32:05;10.02;;;9.00;;
55082;SDS011;40978;52.850;6.506;2023-03-19T09:34:31;9.30;;;8.50;;
55082;SDS011;40978;52.850;6.506;2023-03-19T09:36:57;10.13;;;9.13;;
55082;SDS011;40978;52.850;6.506;2023-03-19T09:39:22;9.32;;;8.32;;
55082;SDS011;40978;52.850;6.506;2023-03-19T09:41:51;9.93;;;9.00;;
55082;SDS011;40978;52.850;6.506;2023-03-19T09:44:33;9.90;;;9.00;;
55082;SDS011;40978;52.850;6.506;2023-03-19T09:49:50;10.32;;;9.43;;
55082;SDS011;40978;52.850;6.506;2023-03-19T09:52:30;11.20;;;10.20;;
55082;SDS011;40978;52.850;6.506;2023-03-19T09:55:09;10.95;;;9.88;;
55082;SDS011;40978;52.850;6.506;2023-03-19T09:57:36;10.35;;;9.25;;
55082;SDS011;40978;52.850;6.506;2023-03-19T10:02:47;10.65;;;9.63;;
55082;SDS011;40978;52.850;6.506;2023-03-19T10:05:50;11.13;;;10.05;;
55082;SDS011;40978;52.850;6.506;2023-03-19T10:08:57;10.73;;;9.80;;
55082;SDS011;40978;52.850;6.506;2023-03-19T10:11:28;12.18;;;11.07;;
55082;SDS011;40978;52.850;6.506;2023-03-19T10:16:43;12.75;;;11.50;;
55082;SDS011;40978;52.850;6.506;2023-03-19T10:19:12;14.05;;;12.40;;
55082;SDS011;40978;52.850;6.506;2023-03-19T10:21:43;14.02;;;12.55;;
55082;SDS011;40978;52.850;6.506;2023-03-19T10:24:17;13.88;;;12.52;;
55082;SDS011;40978;52.850;6.506;2023-03-19T10:26:49;14.65;;;13.25;;
55082;SDS011;40978;52.850;6.506;2023-03-19T10:29:22;13.52;;;12.23;;
55082;SDS011;40978;52.850;6.506;2023-03-19T10:31:55;14.43;;;12.63;;
55082;SDS011;40978;52.850;6.506;2023-03-19T10:34:43;15.60;;;14.05;;
55082;SDS011;40978;52.850;6.506;2023-03-19T10:39:45;15.57;;;14.10;;
55082;SDS011;40978;52.850;6.506;2023-03-19T10:42:18;14.93;;;13.52;;
55082;SDS011;40978;52.850;6.506;2023-03-19T10:45:18;15.13;;;13.55;;
55082;SDS011;40978;52.850;6.506;2023-03-19T10:47:45;14.55;;;13.05;;
55082;SDS011;40978;52.850;6.506;2023-03-19T10:50:15;15.27;;;13.70;;
55082;SDS011;40978;52.850;6.506;2023-03-19T10:52:43;14.68;;;13.27;;
55082;SDS011;40978;52.850;6.506;2023-03-19T10:57:42;14.68;;;13.27;;
55082;SDS011;40978;52.850;6.506;2023-03-19T11:00:14;16.00;;;14.40;;
55082;SDS011;40978;52.850;6.506;2023-03-19T11:02:46;16.13;;;14.35;;
55082;SDS011;40978;52.850;6.506;2023-03-19T11:07:54;14.55;;;13.10;;
55082;SDS011;40978;52.850;6.506;2023-03-19T11:10:23;14.50;;;13.15;;
55082;SDS011;40978;52.850;6.506;2023-03-19T11:12:51;14.23;;;12.73;;
55082;SDS011;40978;52.850;6.506;2023-03-19T11:15:22;14.45;;;13.02;;
55082;SDS011;40978;52.850;6.506;2023-03-19T11:17:58;13.80;;;12.45;;
55082;SDS011;40978;52.850;6.506;2023-03-19T11:20:34;13.75;;;12.45;;
55082;SDS011;40978;52.850;6.506;2023-03-19T11:23:05;13.13;;;11.93;;
55082;SDS011;40978;52.850;6.506;2023-03-19T11:25:37;13.52;;;12.20;;
55082;SDS011;40978;52.850;6.506;2023-03-19T11:28:12;13.20;;;11.88;;
55082;SDS011;40978;52.850;6.506;2023-03-19T11:33:46;14.55;;;13.15;;
55082;SDS011;40978;52.850;6.506;2023-03-19T11:41:48;15.75;;;14.10;;
55082;SDS011;40978;52.850;6.506;2023-03-19T11:44:39;12.70;;;11.60;;
55082;SDS011;40978;52.850;6.506;2023-03-19T11:49:41;11.90;;;10.80;;
55082;SDS011;40978;52.850;6.506;2023-03-19T11:52:17;15.02;;;13.23;;
55082;SDS011;40978;52.850;6.506;2023-03-19T11:55:02;12.93;;;11.65;;
55082;SDS011;40978;52.850;6.506;2023-03-19T12:00:24;12.52;;;11.32;;
55082;SDS011;40978;52.850;6.506;2023-03-19T12:05:56;13.45;;;12.23;;
55082;SDS011;40978;52.850;6.506;2023-03-19T12:13:41;13.18;;;11.98;;
55082;SDS011;40978;52.850;6.506;2023-03-19T12:16:14;13.48;;;12.07;;
55082;SDS011;40978;52.850;6.506;2023-03-19T12:26:57;11.20;;;10.13;;
55082;SDS011;40978;52.850;6.506;2023-03-19T12:29:35;11.50;;;10.40;;
55082;SDS011;40978;52.850;6.506;2023-03-19T12:35:23;11.33;;;10.07;;
55082;SDS011;40978;52.850;6.506;2023-03-19T12:38:00;11.32;;;10.32;;
55082;SDS011;40978;52.850;6.506;2023-03-19T12:40:46;10.75;;;9.52;;
55082;SDS011;40978;52.850;6.506;2023-03-19T12:43:16;10.43;;;9.48;;
55082;SDS011;40978;52.850;6.506;2023-03-19T12:45:55;11.20;;;10.20;;
55082;SDS011;40978;52.850;6.506;2023-03-19T12:48:34;11.38;;;10.25;;
55082;SDS011;40978;52.850;6.506;2023-03-19T12:51:07;11.60;;;10.60;;
55082;SDS011;40978;52.850;6.506;2023-03-19T12:53:49;11.23;;;9.98;;
55082;SDS011;40978;52.850;6.506;2023-03-19T12:56:31;11.63;;;10.43;;
55082;SDS011;40978;52.850;6.506;2023-03-19T12:59:31;11.60;;;10.40;;
55082;SDS011;40978;52.850;6.506;2023-03-19T13:02:10;11.23;;;10.20;;
55082;SDS011;40978;52.850;6.506;2023-03-19T13:04:55;12.18;;;11.07;;
55082;SDS011;40978;52.850;6.506;2023-03-19T13:07:49;11.63;;;10.52;;
55082;SDS011;40978;52.850;6.506;2023-03-19T13:10:27;11.32;;;9.80;;
55082;SDS011;40978;52.850;6.506;2023-03-19T13:12:55;12.75;;;11.65;;
55082;SDS011;40978;52.850;6.506;2023-03-19T13:15:27;13.00;;;11.73;;
55082;SDS011;40978;52.850;6.506;2023-03-19T13:23:37;12.60;;;11.35;;
55082;SDS011;40978;52.850;6.506;2023-03-19T13:26:08;12.98;;;11.68;;
55082;SDS011;40978;52.850;6.506;2023-03-19T13:28:37;12.90;;;11.70;;
55082;SDS011;40978;52.850;6.506;2023-03-19T13:31:20;13.60;;;12.15;;
55082;SDS011;40978;52.850;6.506;2023-03-19T13:33:59;12.82;;;11.65;;
55082;SDS011;40978;52.850;6.506;2023-03-19T13:36:34;14.25;;;12.85;;
55082;SDS011;40978;52.850;6.506;2023-03-19T13:39:10;12.52;;;11.40;;
55082;SDS011;40978;52.850;6.506;2023-03-19T13:52:51;14.43;;;13.00;;
55082;SDS011;40978;52.850;6.506;2023-03-19T14:03:18;12.85;;;11.57;;
55082;SDS011;40978;52.850;6.506;2023-03-19T14:05:51;12.98;;;11.77;;
55082;SDS011;40978;52.850;6.506;2023-03-19T14:08:28;13.68;;;11.57;;
55082;SDS011;40978;52.850;6.506;2023-03-19T14:11:07;12.82;;;11.73;;
55082;SDS011;40978;52.850;6.506;2023-03-19T14:13:38;14.05;;;12.65;;
55082;SDS011;40978;52.850;6.506;2023-03-19T14:16:30;15.43;;;13.82;;
55082;SDS011;40978;52.850;6.506;2023-03-19T14:18:59;19.20;;;17.20;;
55082;SDS011;40978;52.850;6.506;2023-03-19T14:22:00;21.33;;;19.10;;
55082;SDS011;40978;52.850;6.506;2023-03-19T14:26:50;24.42;;;18.80;;
55082;SDS011;40978;52.850;6.506;2023-03-19T14:29:17;21.20;;;18.90;;
55082;SDS011;40978;52.850;6.506;2023-03-19T14:31:46;23.88;;;20.98;;
55082;SDS011;40978;52.850;6.506;2023-03-19T14:34:26;25.15;;;21.10;;
55082;SDS011;40978;52.850;6.506;2023-03-19T14:37:03;28.33;;;22.23;;
55082;SDS011;40978;52.850;6.506;2023-03-19T14:40:42;26.83;;;22.65;;
55082;SDS011;40978;52.850;6.506;2023-03-19T14:46:24;23.13;;;18.92;;
55082;SDS011;40978;52.850;6.506;2023-03-19T14:56:48;21.02;;;16.17;;
55082;SDS011;40978;52.850;6.506;2023-03-19T14:59:14;23.55;;;18.42;;
55082;SDS011;40978;52.850;6.506;2023-03-19T15:01:49;27.60;;;20.42;;
55082;SDS011;40978;52.850;6.506;2023-03-19T15:04:18;26.85;;;19.83;;
55082;SDS011;40978;52.850;6.506;2023-03-19T15:06:50;28.00;;;20.40;;
55082;SDS011;40978;52.850;6.506;2023-03-19T15:09:26;28.88;;;20.25;;
55082;SDS011;40978;52.850;6.506;2023-03-19T15:17:39;26.25;;;18.05;;
55082;SDS011;40978;52.850;6.506;2023-03-19T15:20:14;24.63;;;16.63;;
55082;SDS011;40978;52.850;6.506;2023-03-19T15:22:52;23.83;;;15.38;;
55082;SDS011;40978;52.850;6.506;2023-03-19T15:25:20;20.13;;;14.52;;
55082;SDS011;40978;52.850;6.506;2023-03-19T15:27:56;24.20;;;14.48;;
55082;SDS011;40978;52.850;6.506;2023-03-19T15:30:33;23.45;;;16.08;;
55082;SDS011;40978;52.850;6.506;2023-03-19T15:32:59;24.35;;;17.23;;
55082;SDS011;40978;52.850;6.506;2023-03-19T15:38:23;27.60;;;17.63;;
55082;SDS011;40978;52.850;6.506;2023-03-19T15:40:52;28.02;;;17.52;;
55082;SDS011;40978;52.850;6.506;2023-03-19T15:43:18;24.05;;;16.48;;
55082;SDS011;40978;52.850;6.506;2023-03-19T15:45:48;26.60;;;17.95;;
55082;SDS011;40978;52.850;6.506;2023-03-19T15:50:43;27.10;;;17.42;;
55082;SDS011;40978;52.850;6.506;2023-03-19T15:55:48;24.48;;;16.33;;
55082;SDS011;40978;52.850;6.506;2023-03-19T15:58:16;22.95;;;16.55;;
55082;SDS011;40978;52.850;6.506;2023-03-19T16:00:46;27.10;;;18.23;;
55082;SDS011;40978;52.850;6.506;2023-03-19T16:03:16;25.02;;;17.58;;
55082;SDS011;40978;52.850;6.506;2023-03-19T16:05:44;29.40;;;17.50;;
55082;SDS011;40978;52.850;6.506;2023-03-19T16:08:22;30.27;;;18.92;;
55082;SDS011;40978;52.850;6.506;2023-03-19T16:10:50;31.13;;;18.83;;
55082;SDS011;40978;52.850;6.506;2023-03-19T16:13:38;29.25;;;18.60;;
55082;SDS011;40978;52.850;6.506;2023-03-19T16:16:18;33.60;;;18.98;;
55082;SDS011;40978;52.850;6.506;2023-03-19T16:18:49;33.40;;;19.08;;
55082;SDS011;40978;52.850;6.506;2023-03-19T16:23:59;33.13;;;19.33;;
55082;SDS011;40978;52.850;6.506;2023-03-19T16:26:49;32.47;;;19.45;;
55082;SDS011;40978;52.850;6.506;2023-03-19T16:29:20;30.73;;;19.67;;
55082;SDS011;40978;52.850;6.506;2023-03-19T16:31:52;32.13;;;18.85;;
55082;SDS011;40978;52.850;6.506;2023-03-19T16:34:31;31.73;;;19.95;;
55082;SDS011;40978;52.850;6.506;2023-03-19T16:40:08;32.00;;;18.75;;